sensor_id;sensor_type;location;lat;lon;timestamp;temperature;humidity
68215;DHT22;55036;52.138;5.236;2023-05-24T00:01:55;11.00;71.20
68215;DHT22;55036;52.138;5.236;2023-05-24T00:04:22;10.90;71.20
68215;DHT22;55036;52.138;5.236;2023-05-24T00:06:51;10.90;71.10
68215;DHT22;55036;52.138;5.236;2023-05-24T00:09:20;10.90;71.30
68215;DHT22;55036;52.138;5.236;2023-05-24T00:11:47;10.80;71.40
68215;DHT22;55036;52.138;5.236;2023-05-24T00:47:43;10.30;73.20
68215;DHT22;55036;52.138;5.236;2023-05-24T00:50:11;10.30;73.20
68215;DHT22;55036;52.138;5.236;2023-05-24T00:52:40;10.30;73.40
68215;DHT22;55036;52.138;5.236;2023-05-24T00:55:08;10.30;73.60
68215;DHT22;55036;52.138;5.236;2023-05-24T00:57:36;10.20;73.50
68215;DHT22;55036;52.138;5.236;2023-05-24T01:00:04;10.30;73.50
68215;DHT22;55036;52.138;5.236;2023-05-24T01:02:31;10.20;73.70
68215;DHT22;55036;52.138;5.236;2023-05-24T01:04:58;10.20;73.70
68215;DHT22;55036;52.138;5.236;2023-05-24T01:10:19;10.20;73.80
68215;DHT22;55036;52.138;5.236;2023-05-24T01:13:00;10.20;74.20
68215;DHT22;55036;52.138;5.236;2023-05-24T01:18:17;10.30;74.40
68215;DHT22;55036;52.138;5.236;2023-05-24T01:20:51;10.30;74.40
68215;DHT22;55036;52.138;5.236;2023-05-24T01:23:31;10.20;74.20
68215;DHT22;55036;52.138;5.236;2023-05-24T01:28:53;10.20;74.50
68215;DHT22;55036;52.138;5.236;2023-05-24T01:31:20;10.20;74.60
68215;DHT22;55036;52.138;5.236;2023-05-24T01:33:47;10.20;74.60
68215;DHT22;55036;52.138;5.236;2023-05-24T01:36:14;10.20;74.60
68215;DHT22;55036;52.138;5.236;2023-05-24T01:38:40;10.20;74.80
68215;DHT22;55036;52.138;5.236;2023-05-24T01:44:03;10.20;74.70
68215;DHT22;55036;52.138;5.236;2023-05-24T01:46:35;10.20;74.90
68215;DHT22;55036;52.138;5.236;2023-05-24T01:52:02;10.10;74.80
68215;DHT22;55036;52.138;5.236;2023-05-24T01:54:36;10.10;75.00
68215;DHT22;55036;52.138;5.236;2023-05-24T01:57:06;10.00;74.80
68215;DHT22;55036;52.138;5.236;2023-05-24T01:59:35;10.00;74.80
68215;DHT22;55036;52.138;5.236;2023-05-24T02:02:02;10.00;75.80
68215;DHT22;55036;52.138;5.236;2023-05-24T02:04:29;10.00;75.10
68215;DHT22;55036;52.138;5.236;2023-05-24T02:06:56;10.00;74.90
68215;DHT22;55036;52.138;5.236;2023-05-24T02:09:23;9.90;74.80
68215;DHT22;55036;52.138;5.236;2023-05-24T02:11:49;9.90;74.80
68215;DHT22;55036;52.138;5.236;2023-05-24T02:14:16;9.90;74.90
68215;DHT22;55036;52.138;5.236;2023-05-24T02:16:45;9.80;74.70
68215;DHT22;55036;52.138;5.236;2023-05-24T02:19:13;9.80;74.80
68215;DHT22;55036;52.138;5.236;2023-05-24T02:21:40;9.80;75.10
68215;DHT22;55036;52.138;5.236;2023-05-24T02:24:07;9.70;75.30
68215;DHT22;55036;52.138;5.236;2023-05-24T02:26:37;9.70;75.30
68215;DHT22;55036;52.138;5.236;2023-05-24T02:29:04;9.70;75.20
68215;DHT22;55036;52.138;5.236;2023-05-24T02:31:30;9.70;75.10
68215;DHT22;55036;52.138;5.236;2023-05-24T02:33:57;9.60;75.30
68215;DHT22;55036;52.138;5.236;2023-05-24T02:36:24;9.60;75.30
68215;DHT22;55036;52.138;5.236;2023-05-24T02:38:51;9.60;75.20
68215;DHT22;55036;52.138;5.236;2023-05-24T02:41:18;9.50;75.00
68215;DHT22;55036;52.138;5.236;2023-05-24T02:43:45;9.50;76.00
68215;DHT22;55036;52.138;5.236;2023-05-24T02:46:13;9.50;75.10
68215;DHT22;55036;52.138;5.236;2023-05-24T02:48:40;9.50;76.00
68215;DHT22;55036;52.138;5.236;2023-05-24T02:51:07;9.40;75.20
68215;DHT22;55036;52.138;5.236;2023-05-24T02:53:33;9.30;75.40
68215;DHT22;55036;52.138;5.236;2023-05-24T02:56:00;9.30;75.60
68215;DHT22;55036;52.138;5.236;2023-05-24T02:58:27;9.30;75.50
68215;DHT22;55036;52.138;5.236;2023-05-24T03:00:54;9.30;75.40
68215;DHT22;55036;52.138;5.236;2023-05-24T03:03:21;9.20;75.60
68215;DHT22;55036;52.138;5.236;2023-05-24T03:05:48;9.20;75.80
68215;DHT22;55036;52.138;5.236;2023-05-24T03:08:15;9.20;75.80
68215;DHT22;55036;52.138;5.236;2023-05-24T03:10:42;9.20;76.70
68215;DHT22;55036;52.138;5.236;2023-05-24T03:13:09;9.20;75.80
68215;DHT22;55036;52.138;5.236;2023-05-24T03:15:36;9.20;75.80
68215;DHT22;55036;52.138;5.236;2023-05-24T03:18:02;9.10;76.00
68215;DHT22;55036;52.138;5.236;2023-05-24T03:20:29;9.10;75.70
68215;DHT22;55036;52.138;5.236;2023-05-24T03:22:56;9.10;76.20
68215;DHT22;55036;52.138;5.236;2023-05-24T03:25:23;9.10;76.20
68215;DHT22;55036;52.138;5.236;2023-05-24T03:27:50;9.10;76.20
68215;DHT22;55036;52.138;5.236;2023-05-24T03:30:16;9.10;75.80
68215;DHT22;55036;52.138;5.236;2023-05-24T03:32:43;9.00;75.80
68215;DHT22;55036;52.138;5.236;2023-05-24T03:35:10;9.00;75.90
68215;DHT22;55036;52.138;5.236;2023-05-24T03:37:39;9.00;76.00
68215;DHT22;55036;52.138;5.236;2023-05-24T03:40:06;8.90;76.00
68215;DHT22;55036;52.138;5.236;2023-05-24T03:42:33;8.90;76.10
68215;DHT22;55036;52.138;5.236;2023-05-24T03:45:00;8.90;76.20
68215;DHT22;55036;52.138;5.236;2023-05-24T03:47:26;8.90;76.20
68215;DHT22;55036;52.138;5.236;2023-05-24T03:49:53;8.80;76.50
68215;DHT22;55036;52.138;5.236;2023-05-24T03:52:20;8.80;76.30
68215;DHT22;55036;52.138;5.236;2023-05-24T03:54:46;8.80;76.30
68215;DHT22;55036;52.138;5.236;2023-05-24T03:57:14;8.80;76.30
68215;DHT22;55036;52.138;5.236;2023-05-24T03:59:41;8.70;76.40
68215;DHT22;55036;52.138;5.236;2023-05-24T04:02:08;8.70;76.50
68215;DHT22;55036;52.138;5.236;2023-05-24T04:04:35;8.70;76.70
68215;DHT22;55036;52.138;5.236;2023-05-24T04:07:02;8.80;76.90
68215;DHT22;55036;52.138;5.236;2023-05-24T04:09:29;8.80;76.90
68215;DHT22;55036;52.138;5.236;2023-05-24T04:11:56;8.90;77.20
68215;DHT22;55036;52.138;5.236;2023-05-24T04:14:23;8.90;76.90
68215;DHT22;55036;52.138;5.236;2023-05-24T04:16:49;9.00;77.80
68215;DHT22;55036;52.138;5.236;2023-05-24T04:19:17;9.00;76.80
68215;DHT22;55036;52.138;5.236;2023-05-24T04:21:44;9.00;76.70
68215;DHT22;55036;52.138;5.236;2023-05-24T04:24:11;9.00;77.20
68215;DHT22;55036;52.138;5.236;2023-05-24T04:26:38;9.10;77.50
68215;DHT22;55036;52.138;5.236;2023-05-24T04:29:05;9.20;77.50
68215;DHT22;55036;52.138;5.236;2023-05-24T04:31:33;9.30;77.20
68215;DHT22;55036;52.138;5.236;2023-05-24T04:34:01;9.30;77.00
68215;DHT22;55036;52.138;5.236;2023-05-24T04:36:28;9.40;77.00
68215;DHT22;55036;52.138;5.236;2023-05-24T04:38:56;9.50;77.10
68215;DHT22;55036;52.138;5.236;2023-05-24T04:41:28;9.50;77.10
68215;DHT22;55036;52.138;5.236;2023-05-24T04:43:57;9.60;77.10
68215;DHT22;55036;52.138;5.236;2023-05-24T04:46:27;9.60;77.00
68215;DHT22;55036;52.138;5.236;2023-05-24T04:48:54;9.70;77.20
68215;DHT22;55036;52.138;5.236;2023-05-24T04:51:21;9.90;77.40
68215;DHT22;55036;52.138;5.236;2023-05-24T04:53:48;10.10;77.50
68215;DHT22;55036;52.138;5.236;2023-05-24T04:56:15;10.30;77.60
68215;DHT22;55036;52.138;5.236;2023-05-24T04:58:42;10.40;77.60
68215;DHT22;55036;52.138;5.236;2023-05-24T05:01:09;10.60;77.70
68215;DHT22;55036;52.138;5.236;2023-05-24T05:03:36;10.90;77.60
68215;DHT22;55036;52.138;5.236;2023-05-24T05:06:03;11.30;76.90
68215;DHT22;55036;52.138;5.236;2023-05-24T05:08:30;11.60;77.00
68215;DHT22;55036;52.138;5.236;2023-05-24T05:10:56;11.80;77.10
68215;DHT22;55036;52.138;5.236;2023-05-24T05:13:24;12.10;77.20
68215;DHT22;55036;52.138;5.236;2023-05-24T05:15:50;12.40;77.10
68215;DHT22;55036;52.138;5.236;2023-05-24T05:18:18;12.60;76.40
68215;DHT22;55036;52.138;5.236;2023-05-24T05:20:45;12.90;76.40
68215;DHT22;55036;52.138;5.236;2023-05-24T05:23:12;13.10;76.10
68215;DHT22;55036;52.138;5.236;2023-05-24T05:25:39;13.30;75.90
68215;DHT22;55036;52.138;5.236;2023-05-24T05:28:05;13.50;75.70
68215;DHT22;55036;52.138;5.236;2023-05-24T05:30:32;13.60;75.20
68215;DHT22;55036;52.138;5.236;2023-05-24T05:32:59;13.80;75.20
68215;DHT22;55036;52.138;5.236;2023-05-24T05:35:26;14.00;74.20
68215;DHT22;55036;52.138;5.236;2023-05-24T05:37:52;14.20;74.60
68215;DHT22;55036;52.138;5.236;2023-05-24T05:40:19;14.40;73.60
68215;DHT22;55036;52.138;5.236;2023-05-24T05:42:46;14.50;73.60
68215;DHT22;55036;52.138;5.236;2023-05-24T05:45:13;14.70;73.50
68215;DHT22;55036;52.138;5.236;2023-05-24T05:47:39;14.90;74.20
68215;DHT22;55036;52.138;5.236;2023-05-24T05:50:06;15.00;72.70
68215;DHT22;55036;52.138;5.236;2023-05-24T05:52:33;15.10;71.80
68215;DHT22;55036;52.138;5.236;2023-05-24T05:55:00;15.20;70.40
68215;DHT22;55036;52.138;5.236;2023-05-24T05:57:27;15.30;71.00
68215;DHT22;55036;52.138;5.236;2023-05-24T05:59:54;15.40;70.30
68215;DHT22;55036;52.138;5.236;2023-05-24T06:02:21;15.50;70.50
68215;DHT22;55036;52.138;5.236;2023-05-24T06:04:50;15.60;69.30
68215;DHT22;55036;52.138;5.236;2023-05-24T06:07:17;15.70;68.80
68215;DHT22;55036;52.138;5.236;2023-05-24T06:09:44;15.80;68.70
68215;DHT22;55036;52.138;5.236;2023-05-24T06:12:11;15.90;68.30
68215;DHT22;55036;52.138;5.236;2023-05-24T06:14:37;15.90;68.50
68215;DHT22;55036;52.138;5.236;2023-05-24T06:17:07;16.10;67.80
68215;DHT22;55036;52.138;5.236;2023-05-24T06:19:34;16.20;67.50
68215;DHT22;55036;52.138;5.236;2023-05-24T06:22:01;16.40;67.80
68215;DHT22;55036;52.138;5.236;2023-05-24T06:24:28;16.40;66.50
68215;DHT22;55036;52.138;5.236;2023-05-24T06:26:55;16.30;65.30
68215;DHT22;55036;52.138;5.236;2023-05-24T06:29:22;16.10;65.00
68215;DHT22;55036;52.138;5.236;2023-05-24T06:31:50;15.90;65.10
68215;DHT22;55036;52.138;5.236;2023-05-24T06:34:18;15.90;65.50
68215;DHT22;55036;52.138;5.236;2023-05-24T06:36:47;16.00;66.00
68215;DHT22;55036;52.138;5.236;2023-05-24T06:39:14;15.90;65.00
68215;DHT22;55036;52.138;5.236;2023-05-24T06:41:42;15.70;65.30
68215;DHT22;55036;52.138;5.236;2023-05-24T06:44:09;15.70;65.90
68215;DHT22;55036;52.138;5.236;2023-05-24T06:46:36;15.60;64.80
68215;DHT22;55036;52.138;5.236;2023-05-24T06:49:03;15.60;66.10
68215;DHT22;55036;52.138;5.236;2023-05-24T06:51:30;15.70;65.50
68215;DHT22;55036;52.138;5.236;2023-05-24T06:53:59;15.80;65.60
68215;DHT22;55036;52.138;5.236;2023-05-24T06:56:26;15.80;64.60
68215;DHT22;55036;52.138;5.236;2023-05-24T06:58:55;16.00;63.90
68215;DHT22;55036;52.138;5.236;2023-05-24T07:01:21;16.10;64.20
68215;DHT22;55036;52.138;5.236;2023-05-24T07:03:48;16.10;63.30
68215;DHT22;55036;52.138;5.236;2023-05-24T07:06:15;16.00;63.30
68215;DHT22;55036;52.138;5.236;2023-05-24T07:08:42;16.00;63.10
68215;DHT22;55036;52.138;5.236;2023-05-24T07:11:09;16.10;63.30
68215;DHT22;55036;52.138;5.236;2023-05-24T07:13:36;16.30;62.80
68215;DHT22;55036;52.138;5.236;2023-05-24T07:16:04;16.40;62.50
68215;DHT22;55036;52.138;5.236;2023-05-24T07:18:31;16.50;61.70
68215;DHT22;55036;52.138;5.236;2023-05-24T07:20:58;16.70;61.90
68215;DHT22;55036;52.138;5.236;2023-05-24T07:23:26;16.90;60.50
68215;DHT22;55036;52.138;5.236;2023-05-24T07:25:55;16.80;60.60
68215;DHT22;55036;52.138;5.236;2023-05-24T07:28:21;16.70;60.40
68215;DHT22;55036;52.138;5.236;2023-05-24T07:30:49;16.70;60.90
68215;DHT22;55036;52.138;5.236;2023-05-24T07:33:16;16.60;60.40
68215;DHT22;55036;52.138;5.236;2023-05-24T07:35:43;16.50;61.10
68215;DHT22;55036;52.138;5.236;2023-05-24T07:38:17;16.80;61.20
68215;DHT22;55036;52.138;5.236;2023-05-24T07:40:44;17.10;60.40
68215;DHT22;55036;52.138;5.236;2023-05-24T07:43:11;17.40;59.90
68215;DHT22;55036;52.138;5.236;2023-05-24T07:45:38;17.50;58.90
68215;DHT22;55036;52.138;5.236;2023-05-24T07:48:05;17.60;57.00
68215;DHT22;55036;52.138;5.236;2023-05-24T07:50:32;17.60;57.80
68215;DHT22;55036;52.138;5.236;2023-05-24T07:52:58;17.80;57.50
68215;DHT22;55036;52.138;5.236;2023-05-24T07:55:25;18.00;58.30
68215;DHT22;55036;52.138;5.236;2023-05-24T07:57:53;18.20;58.50
68215;DHT22;55036;52.138;5.236;2023-05-24T08:00:20;18.20;55.80
68215;DHT22;55036;52.138;5.236;2023-05-24T08:02:47;18.20;55.50
68215;DHT22;55036;52.138;5.236;2023-05-24T08:05:14;18.20;55.10
68215;DHT22;55036;52.138;5.236;2023-05-24T08:07:42;18.20;54.70
68215;DHT22;55036;52.138;5.236;2023-05-24T08:10:09;18.20;54.10
68215;DHT22;55036;52.138;5.236;2023-05-24T08:12:40;18.10;54.50
68215;DHT22;55036;52.138;5.236;2023-05-24T08:15:07;18.10;52.40
68215;DHT22;55036;52.138;5.236;2023-05-24T08:17:34;17.90;53.60
68215;DHT22;55036;52.138;5.236;2023-05-24T08:20:02;17.70;53.30
68215;DHT22;55036;52.138;5.236;2023-05-24T08:22:32;17.50;53.60
68215;DHT22;55036;52.138;5.236;2023-05-24T08:24:59;17.30;53.60
68215;DHT22;55036;52.138;5.236;2023-05-24T08:27:26;17.40;54.90
68215;DHT22;55036;52.138;5.236;2023-05-24T08:29:56;17.60;54.70
68215;DHT22;55036;52.138;5.236;2023-05-24T08:32:22;17.70;54.50
68215;DHT22;55036;52.138;5.236;2023-05-24T08:34:49;18.00;53.70
68215;DHT22;55036;52.138;5.236;2023-05-24T08:37:16;18.20;54.00
68215;DHT22;55036;52.138;5.236;2023-05-24T08:39:46;18.50;53.30
68215;DHT22;55036;52.138;5.236;2023-05-24T08:42:13;18.60;52.70
68215;DHT22;55036;52.138;5.236;2023-05-24T08:44:52;18.70;52.40
68215;DHT22;55036;52.138;5.236;2023-05-24T08:47:19;18.50;51.80
68215;DHT22;55036;52.138;5.236;2023-05-24T08:49:50;18.30;52.50
68215;DHT22;55036;52.138;5.236;2023-05-24T08:52:17;18.40;53.20
68215;DHT22;55036;52.138;5.236;2023-05-24T08:54:48;18.60;53.40
68215;DHT22;55036;52.138;5.236;2023-05-24T08:57:15;18.90;53.10
68215;DHT22;55036;52.138;5.236;2023-05-24T08:59:43;18.80;50.80
68215;DHT22;55036;52.138;5.236;2023-05-24T09:02:13;18.50;51.60
68215;DHT22;55036;52.138;5.236;2023-05-24T09:04:40;18.30;50.40
68215;DHT22;55036;52.138;5.236;2023-05-24T09:07:11;18.20;51.90
68215;DHT22;55036;52.138;5.236;2023-05-24T09:09:42;18.30;51.90
68215;DHT22;55036;52.138;5.236;2023-05-24T09:12:14;18.30;51.90
68215;DHT22;55036;52.138;5.236;2023-05-24T09:14:54;18.20;50.90
68215;DHT22;55036;52.138;5.236;2023-05-24T09:17:21;18.30;51.20
68215;DHT22;55036;52.138;5.236;2023-05-24T09:19:50;18.20;51.50
68215;DHT22;55036;52.138;5.236;2023-05-24T09:22:18;18.20;51.80
68215;DHT22;55036;52.138;5.236;2023-05-24T09:24:51;18.20;52.20
68215;DHT22;55036;52.138;5.236;2023-05-24T09:27:18;18.20;50.60
68215;DHT22;55036;52.138;5.236;2023-05-24T09:29:49;18.10;50.20
68215;DHT22;55036;52.138;5.236;2023-05-24T09:32:20;18.20;51.40
68215;DHT22;55036;52.138;5.236;2023-05-24T09:34:51;18.30;51.00
68215;DHT22;55036;52.138;5.236;2023-05-24T09:37:20;18.20;51.40
68215;DHT22;55036;52.138;5.236;2023-05-24T09:39:55;18.20;52.20
68215;DHT22;55036;52.138;5.236;2023-05-24T09:42:25;18.10;51.60
68215;DHT22;55036;52.138;5.236;2023-05-24T09:45:01;18.00;51.60
68215;DHT22;55036;52.138;5.236;2023-05-24T09:47:31;17.90;51.40
68215;DHT22;55036;52.138;5.236;2023-05-24T09:49:59;17.90;51.30
68215;DHT22;55036;52.138;5.236;2023-05-24T09:52:26;17.80;50.30
68215;DHT22;55036;52.138;5.236;2023-05-24T09:54:53;17.70;50.40
68215;DHT22;55036;52.138;5.236;2023-05-24T09:57:20;17.80;51.10
68215;DHT22;55036;52.138;5.236;2023-05-24T09:59:51;18.10;51.50
68215;DHT22;55036;52.138;5.236;2023-05-24T10:02:20;18.40;48.50
68215;DHT22;55036;52.138;5.236;2023-05-24T10:04:49;18.30;48.80
68215;DHT22;55036;52.138;5.236;2023-05-24T10:07:23;18.10;50.80
68215;DHT22;55036;52.138;5.236;2023-05-24T10:09:50;18.00;49.60
68215;DHT22;55036;52.138;5.236;2023-05-24T10:12:18;17.90;50.30
68215;DHT22;55036;52.138;5.236;2023-05-24T10:14:50;17.90;50.50
68215;DHT22;55036;52.138;5.236;2023-05-24T10:17:17;17.90;49.60
68215;DHT22;55036;52.138;5.236;2023-05-24T10:19:44;17.80;49.40
68215;DHT22;55036;52.138;5.236;2023-05-24T10:22:13;17.90;50.40
68215;DHT22;55036;52.138;5.236;2023-05-24T10:24:46;18.00;49.10
68215;DHT22;55036;52.138;5.236;2023-05-24T10:27:16;18.10;49.30
68215;DHT22;55036;52.138;5.236;2023-05-24T10:29:58;18.00;48.70
68215;DHT22;55036;52.138;5.236;2023-05-24T10:32:28;17.90;50.40
68215;DHT22;55036;52.138;5.236;2023-05-24T10:34:58;17.80;50.10
68215;DHT22;55036;52.138;5.236;2023-05-24T10:37:26;17.80;49.40
68215;DHT22;55036;52.138;5.236;2023-05-24T10:39:53;17.60;50.30
68215;DHT22;55036;52.138;5.236;2023-05-24T10:42:19;17.60;50.00
68215;DHT22;55036;52.138;5.236;2023-05-24T10:44:46;17.50;50.40
68215;DHT22;55036;52.138;5.236;2023-05-24T10:47:14;17.50;51.10
68215;DHT22;55036;52.138;5.236;2023-05-24T10:49:49;17.60;51.30
68215;DHT22;55036;52.138;5.236;2023-05-24T10:52:19;17.80;49.40
68215;DHT22;55036;52.138;5.236;2023-05-24T10:55:07;17.90;49.10
68215;DHT22;55036;52.138;5.236;2023-05-24T10:57:36;18.10;49.80
68215;DHT22;55036;52.138;5.236;2023-05-24T11:03:10;17.90;48.30
68215;DHT22;55036;52.138;5.236;2023-05-24T11:08:23;17.70;49.00
68215;DHT22;55036;52.138;5.236;2023-05-24T11:11:13;17.80;49.50
68215;DHT22;55036;52.138;5.236;2023-05-24T11:13:55;18.00;49.70
68215;DHT22;55036;52.138;5.236;2023-05-24T11:16:34;18.10;49.80
68215;DHT22;55036;52.138;5.236;2023-05-24T11:19:20;18.20;49.40
68215;DHT22;55036;52.138;5.236;2023-05-24T11:21:52;18.40;49.10
68215;DHT22;55036;52.138;5.236;2023-05-24T11:24:25;18.30;48.70
68215;DHT22;55036;52.138;5.236;2023-05-24T11:26:53;18.30;48.50
68215;DHT22;55036;52.138;5.236;2023-05-24T11:29:19;18.30;46.90
68215;DHT22;55036;52.138;5.236;2023-05-24T11:31:53;18.20;47.90
68215;DHT22;55036;52.138;5.236;2023-05-24T11:34:20;18.10;48.20
68215;DHT22;55036;52.138;5.236;2023-05-24T11:36:47;18.20;49.10
68215;DHT22;55036;52.138;5.236;2023-05-24T11:39:14;18.20;49.00
68215;DHT22;55036;52.138;5.236;2023-05-24T11:41:42;18.20;49.10
68215;DHT22;55036;52.138;5.236;2023-05-24T11:44:10;18.10;49.50
68215;DHT22;55036;52.138;5.236;2023-05-24T11:46:38;18.20;48.80
68215;DHT22;55036;52.138;5.236;2023-05-24T11:49:06;18.20;48.40
68215;DHT22;55036;52.138;5.236;2023-05-24T11:51:33;18.10;49.00
68215;DHT22;55036;52.138;5.236;2023-05-24T11:54:01;18.20;49.20
68215;DHT22;55036;52.138;5.236;2023-05-24T11:56:29;18.20;49.00
68215;DHT22;55036;52.138;5.236;2023-05-24T11:59:08;18.10;48.60
68215;DHT22;55036;52.138;5.236;2023-05-24T12:01:36;18.20;48.10
68215;DHT22;55036;52.138;5.236;2023-05-24T12:04:05;18.10;48.30
68215;DHT22;55036;52.138;5.236;2023-05-24T12:06:43;18.10;47.80
68215;DHT22;55036;52.138;5.236;2023-05-24T12:09:11;18.00;48.30
68215;DHT22;55036;52.138;5.236;2023-05-24T12:11:45;18.10;48.80
68215;DHT22;55036;52.138;5.236;2023-05-24T12:14:18;18.30;48.70
68215;DHT22;55036;52.138;5.236;2023-05-24T12:16:46;18.60;50.10
68215;DHT22;55036;52.138;5.236;2023-05-24T12:19:19;18.80;46.30
68215;DHT22;55036;52.138;5.236;2023-05-24T12:21:58;18.90;47.50
68215;DHT22;55036;52.138;5.236;2023-05-24T12:24:26;19.00;45.50
68215;DHT22;55036;52.138;5.236;2023-05-24T12:27:02;18.80;45.80
68215;DHT22;55036;52.138;5.236;2023-05-24T12:29:36;18.70;45.70
68215;DHT22;55036;52.138;5.236;2023-05-24T12:32:04;18.50;46.70
68215;DHT22;55036;52.138;5.236;2023-05-24T12:34:32;18.50;47.10
68215;DHT22;55036;52.138;5.236;2023-05-24T12:36:58;18.70;47.60
68215;DHT22;55036;52.138;5.236;2023-05-24T12:39:27;19.00;46.20
68215;DHT22;55036;52.138;5.236;2023-05-24T12:42:00;19.10;45.80
68215;DHT22;55036;52.138;5.236;2023-05-24T12:44:29;19.10;46.20
68215;DHT22;55036;52.138;5.236;2023-05-24T12:46:58;19.20;45.90
68215;DHT22;55036;52.138;5.236;2023-05-24T12:49:25;19.60;45.50
68215;DHT22;55036;52.138;5.236;2023-05-24T12:51:53;19.80;44.10
68215;DHT22;55036;52.138;5.236;2023-05-24T12:54:27;19.60;44.50
68215;DHT22;55036;52.138;5.236;2023-05-24T12:56:55;19.60;44.10
68215;DHT22;55036;52.138;5.236;2023-05-24T12:59:24;19.50;43.60
68215;DHT22;55036;52.138;5.236;2023-05-24T13:01:51;19.60;44.40
68215;DHT22;55036;52.138;5.236;2023-05-24T13:04:20;19.60;43.60
68215;DHT22;55036;52.138;5.236;2023-05-24T13:06:47;19.40;43.50
68215;DHT22;55036;52.138;5.236;2023-05-24T13:09:15;19.10;43.50
68215;DHT22;55036;52.138;5.236;2023-05-24T13:11:46;18.90;44.10
68215;DHT22;55036;52.138;5.236;2023-05-24T13:14:13;18.90;45.80
68215;DHT22;55036;52.138;5.236;2023-05-24T13:16:41;19.00;46.20
68215;DHT22;55036;52.138;5.236;2023-05-24T13:19:08;19.40;45.50
68215;DHT22;55036;52.138;5.236;2023-05-24T13:21:35;19.70;44.80
68215;DHT22;55036;52.138;5.236;2023-05-24T13:24:02;19.70;44.40
68215;DHT22;55036;52.138;5.236;2023-05-24T13:26:31;19.50;44.80
68215;DHT22;55036;52.138;5.236;2023-05-24T13:29:05;19.20;44.30
68215;DHT22;55036;52.138;5.236;2023-05-24T13:31:35;19.10;45.60
68215;DHT22;55036;52.138;5.236;2023-05-24T13:34:04;19.20;46.10
68215;DHT22;55036;52.138;5.236;2023-05-24T13:36:31;19.30;44.40
68215;DHT22;55036;52.138;5.236;2023-05-24T13:38:58;19.20;45.50
68215;DHT22;55036;52.138;5.236;2023-05-24T13:41:41;19.10;46.10
68215;DHT22;55036;52.138;5.236;2023-05-24T13:44:09;19.20;46.40
68215;DHT22;55036;52.138;5.236;2023-05-24T13:46:36;19.10;46.00
68215;DHT22;55036;52.138;5.236;2023-05-24T13:49:04;19.00;45.80
68215;DHT22;55036;52.138;5.236;2023-05-24T13:51:31;18.70;46.20
68215;DHT22;55036;52.138;5.236;2023-05-24T13:53:58;18.60;46.50
68215;DHT22;55036;52.138;5.236;2023-05-24T13:56:25;18.50;46.60
68215;DHT22;55036;52.138;5.236;2023-05-24T13:59:01;18.50;47.30
68215;DHT22;55036;52.138;5.236;2023-05-24T14:01:29;18.40;46.90
68215;DHT22;55036;52.138;5.236;2023-05-24T14:03:56;18.40;47.40
68215;DHT22;55036;52.138;5.236;2023-05-24T14:06:23;18.20;47.20
68215;DHT22;55036;52.138;5.236;2023-05-24T14:08:50;18.00;47.60
68215;DHT22;55036;52.138;5.236;2023-05-24T14:11:17;17.90;48.20
68215;DHT22;55036;52.138;5.236;2023-05-24T14:13:45;18.00;48.80
68215;DHT22;55036;52.138;5.236;2023-05-24T14:16:14;18.30;49.00
68215;DHT22;55036;52.138;5.236;2023-05-24T14:18:42;18.50;47.70
68215;DHT22;55036;52.138;5.236;2023-05-24T14:21:09;18.50;48.30
68215;DHT22;55036;52.138;5.236;2023-05-24T14:23:37;18.30;48.30
68215;DHT22;55036;52.138;5.236;2023-05-24T14:26:04;18.30;48.30
68215;DHT22;55036;52.138;5.236;2023-05-24T14:28:30;18.20;48.10
68215;DHT22;55036;52.138;5.236;2023-05-24T14:30:57;18.10;47.60
68215;DHT22;55036;52.138;5.236;2023-05-24T14:33:24;18.10;48.10
68215;DHT22;55036;52.138;5.236;2023-05-24T14:35:51;18.20;47.90
68215;DHT22;55036;52.138;5.236;2023-05-24T14:38:17;18.30;47.60
68215;DHT22;55036;52.138;5.236;2023-05-24T14:40:44;18.30;49.30
68215;DHT22;55036;52.138;5.236;2023-05-24T14:43:13;18.40;47.60
68215;DHT22;55036;52.138;5.236;2023-05-24T14:45:40;18.40;47.90
68215;DHT22;55036;52.138;5.236;2023-05-24T14:48:09;18.20;47.50
68215;DHT22;55036;52.138;5.236;2023-05-24T14:50:38;18.20;47.20
68215;DHT22;55036;52.138;5.236;2023-05-24T14:53:05;18.20;47.90
68215;DHT22;55036;52.138;5.236;2023-05-24T14:55:38;18.20;47.60
68215;DHT22;55036;52.138;5.236;2023-05-24T14:58:08;18.00;48.10
68215;DHT22;55036;52.138;5.236;2023-05-24T15:00:35;18.00;48.20
68215;DHT22;55036;52.138;5.236;2023-05-24T15:03:02;18.10;48.00
68215;DHT22;55036;52.138;5.236;2023-05-24T15:05:31;18.00;48.20
68215;DHT22;55036;52.138;5.236;2023-05-24T15:07:58;18.10;48.80
68215;DHT22;55036;52.138;5.236;2023-05-24T15:10:25;18.20;49.20
68215;DHT22;55036;52.138;5.236;2023-05-24T15:12:52;18.30;48.60
68215;DHT22;55036;52.138;5.236;2023-05-24T15:15:21;18.30;48.60
68215;DHT22;55036;52.138;5.236;2023-05-24T15:17:48;18.40;48.10
68215;DHT22;55036;52.138;5.236;2023-05-24T15:20:15;18.30;47.80
68215;DHT22;55036;52.138;5.236;2023-05-24T15:22:42;18.20;48.10
68215;DHT22;55036;52.138;5.236;2023-05-24T15:25:09;18.00;48.20
68215;DHT22;55036;52.138;5.236;2023-05-24T15:27:36;18.10;48.40
68215;DHT22;55036;52.138;5.236;2023-05-24T15:30:04;18.20;48.80
68215;DHT22;55036;52.138;5.236;2023-05-24T15:32:31;18.20;48.80
68215;DHT22;55036;52.138;5.236;2023-05-24T15:34:57;18.20;49.00
68215;DHT22;55036;52.138;5.236;2023-05-24T15:37:26;18.10;49.90
68215;DHT22;55036;52.138;5.236;2023-05-24T15:39:53;18.00;49.70
68215;DHT22;55036;52.138;5.236;2023-05-24T15:42:20;18.10;49.30
68215;DHT22;55036;52.138;5.236;2023-05-24T15:44:49;18.10;48.50
68215;DHT22;55036;52.138;5.236;2023-05-24T15:47:16;18.10;49.00
68215;DHT22;55036;52.138;5.236;2023-05-24T15:49:45;18.10;48.90
68215;DHT22;55036;52.138;5.236;2023-05-24T15:52:12;18.10;49.00
68215;DHT22;55036;52.138;5.236;2023-05-24T15:54:39;18.10;49.20
68215;DHT22;55036;52.138;5.236;2023-05-24T15:57:06;18.10;48.70
68215;DHT22;55036;52.138;5.236;2023-05-24T15:59:33;18.00;49.10
68215;DHT22;55036;52.138;5.236;2023-05-24T16:02:02;18.00;49.10
68215;DHT22;55036;52.138;5.236;2023-05-24T16:04:29;17.80;49.60
68215;DHT22;55036;52.138;5.236;2023-05-24T16:06:55;17.60;49.80
68215;DHT22;55036;52.138;5.236;2023-05-24T16:09:22;17.60;49.90
68215;DHT22;55036;52.138;5.236;2023-05-24T16:11:49;17.50;50.20
68215;DHT22;55036;52.138;5.236;2023-05-24T16:14:17;17.50;50.40
68215;DHT22;55036;52.138;5.236;2023-05-24T16:16:43;17.50;51.00
68215;DHT22;55036;52.138;5.236;2023-05-24T16:19:10;17.50;51.20
68215;DHT22;55036;52.138;5.236;2023-05-24T16:21:37;17.50;51.30
68215;DHT22;55036;52.138;5.236;2023-05-24T16:24:04;17.60;51.30
68215;DHT22;55036;52.138;5.236;2023-05-24T16:26:31;17.80;51.30
68215;DHT22;55036;52.138;5.236;2023-05-24T16:28:58;17.80;50.60
68215;DHT22;55036;52.138;5.236;2023-05-24T16:31:25;17.90;50.10
68215;DHT22;55036;52.138;5.236;2023-05-24T16:33:52;18.10;49.80